• Join FlightAware (Why Join?)
  • Login
  • US Flag 
06:47PM EDT


 

Airport Tracker/Info


-or-


 

Live Flight TrackerFlight Track Log ✈ AWE3827 ✈ 16-Apr-2013 ✈ KCLT - KBNA

Flight Track Log - Related Links

Times and Time Zones

All times are in EDT time to prevent confusion due to time zone crossing. See the AWE3827 flight status page for this flight to view local times or setup timezone preferences in your user account.

Time Position Orientation Groundspeed Altitude Reporting Facility
EDT Latitude Longitude Course Direction KTS MPH feet Rate Location/Type
09:39AM 35.1803 -80.9494 239° Southwest 169 194 2,000  Level FAA TRACON SMA TRACON (SMA)
09:39AM 35.1656 -80.9481 176° South 172 198 2,600 1,500 Climbing FAA TRACON SMA TRACON (SMA)
09:40AM 35.1439 -80.9522 189° South 219 252 3,000 1,140 Climbing FAA TRACON SMA TRACON (SMA)
09:40AM 35.1239 -80.9592 196° South 248 285 3,400 1,800 Climbing FAA TRACON SMA TRACON (SMA)
09:40AM 35.1039 -80.9697 203° Southwest 258 297 4,200 2,700 Climbing FAA TRACON SMA TRACON (SMA)
09:41AM 35.2545 -81.1434 282° West  Level FlightAware Approximate
09:41AM 35.0911 -80.9961 239° Southwest 256 295 5,200  Level FAA TRACON SMA TRACON (SMA)
09:41AM 35.0914 -81.0278 271° West 272 313 6,100 2,400 Climbing FAA TRACON SMA TRACON (SMA)
09:41AM 35.0922 -81.0567 272° West 279 321 6,800 2,220 Climbing FAA TRACON SMA TRACON (SMA)
09:42AM 35.2521 -81.2508 242° Southwest  Level FlightAware Approximate
09:42AM 35.0931 -81.0936 272° West 283 326 7,600  Level FAA TRACON SMA TRACON (SMA)
09:42AM 35.0981 -81.1228 282° West 283 326 8,000 1,560 Climbing FAA TRACON SMA TRACON (SMA)
09:43AM 35.2081 -81.3504 239° Southwest  Level FlightAware Approximate
09:43AM 35.1197 -81.1831 294° West 283 326 9,200  Level FAA TRACON SMA TRACON (SMA)
09:43AM 35.1292 -81.2111 292° West 285 328 9,900 2,220 Climbing FAA TRACON SMA TRACON (SMA)
09:43AM 35.1333 -81.2350 282° West 288 331 10,500 2,220 Climbing Atlanta Center
09:44AM 35.1599 -81.4469 239° Southwest  Level FlightAware Approximate
09:44AM 35.1350 -81.3136 272° West 316 364 12,400  Level Atlanta Center
09:45AM 35.1417 -81.4278 274° West 309 356 13,600 1,200 Climbing Atlanta Center
09:46AM 35.1442 -81.5444 272° West 328 377 14,800 1,200 Climbing Atlanta Center
09:47AM 35.1361 -81.6614 265° West 352 405 16,000 1,380 Climbing Atlanta Center
09:48AM 35.1278 -81.7811 265° West 357 411 17,600 1,260 Climbing Atlanta Center
09:49AM 35.1175 -81.9008 264° West 357 411 18,600 1,080 Climbing Atlanta Center
09:50AM 35.1092 -82.0228 265° West 357 411 19,800 1,080 Climbing Atlanta Center
09:51AM 35.1006 -82.1425 265° West 357 411 20,800 720 Climbing Atlanta Center
09:52AM 35.0919 -82.2542 265° West 365 420 21,300 600 Climbing Atlanta Center
09:53AM 35.1372 -82.3625 297° West 351 404 22,000 720 Climbing Atlanta Center
09:54AM 35.1950 -82.4783 301° West 367 422 22,800 780 Climbing Atlanta Center
09:55AM 35.2486 -82.5867 301° West 384 442 23,600 900 Climbing Atlanta Center
09:56AM 35.3061 -82.6950 303° West 389 448 24,600 900 Climbing Atlanta Center
09:57AM 35.3594 -82.8036 301° West 381 438 25,400 660 Climbing Atlanta Center
09:58AM 35.4189 -82.9200 302° West 376 433 26,000 300 Climbing Atlanta Center
09:59AM 35.4764 -83.0314 302° West 384 442 26,000  Level Atlanta Center
10:00AM 35.5314 -83.1481 300° West 384 442 26,000  Level Atlanta Center
10:01AM 35.5822 -83.2419 304° West 384 442 26,000  Level Atlanta Center
10:02AM 35.6350 -83.3514 301° West 384 442 26,000  Level Atlanta Center
10:03AM 35.6878 -83.4533 303° West 377 434 26,000  Level Atlanta Center
10:04AM 35.7381 -83.5553 301° West 365 420 26,000  Level Atlanta Center
10:05AM 35.7864 -83.6572 300° West 352 405 26,000  Level Atlanta Center
10:06AM 35.8389 -83.7594 302° West 352 405 26,000  Level Atlanta Center
10:07AM 35.8892 -83.8619 301° West 352 405 26,000 -960 Level Atlanta Center
10:08AM 35.8894 -83.9850 270° West 352 405 24,100 -1,020 Descending Atlanta Center
10:09AM 35.8706 -84.1081 259° West 352 405 24,000 -60 Descending Atlanta Center
10:10AM 35.8494 -84.2258 258° West 352 405 24,000 -420 Level Atlanta Center
10:11AM 35.8283 -84.3436 258° West 352 405 23,200 -1,200 Descending Atlanta Center
10:12AM 35.8072 -84.4714 259° West 364 419 21,700 -1,500 Descending Atlanta Center
10:13AM 35.7858 -84.6019 259° West 382 440 20,200 -900 Descending Atlanta Center
10:14AM 35.7644 -84.7272 258° West 382 440 20,000 -120 Descending Atlanta Center
10:15AM 35.7428 -84.8525 258° West 382 440 20,000  Level Atlanta Center
10:18AM 35.6872 -85.1711 258° West 377 434 20,000  Level Memphis Center
10:19AM 35.6656 -85.3003 258° West 377 434 20,000  Level Memphis Center
10:20AM 35.6414 -85.4294 257° West 382 440 20,000  Level Memphis Center
10:21AM 35.6175 -85.5583 257° West 382 440 20,000  Level Memphis Center
10:22AM 35.5931 -85.6875 257° West 387 445 20,000  Level Memphis Center
10:23AM 35.5686 -85.8164 257° West 387 445 20,000 -720 Level Memphis Center
10:24AM 35.5711 -85.9389 271° West 365 420 18,600 -1,440 Descending Memphis Center
10:25AM 35.6411 -86.0347 312° West 349 402 17,200 -1,680 Descending Memphis Center
10:26AM 35.7089 -86.1258 313° West 349 402 15,300 -1,860 Descending Memphis Center
10:27AM 35.7744 -86.2094 314° West 354 407 13,500 -1,680 Descending Memphis Center
10:28AM 35.8333 -86.2883 313° West 327 376 12,000 -1,560 Descending Memphis Center
10:29AM 35.8897 -86.3600 314° West 301 346 10,400 -1,620 Descending Memphis Center
10:30AM 35.9422 -86.4317 312° West 295 339 8,800 -1,500 Descending Memphis Center
10:31AM 35.9986 -86.5008 315° West 290 334 7,400 -1,320 Descending Memphis Center
10:32AM 36.0400 -86.5581 312° West 272 313 6,200 -1,200 Descending Memphis Center
10:33AM 36.1047 -86.5653 355° North 229 264 5,000 -900 Descending Memphis Center
10:34AM 36.1683 -86.5314 23° Northeast 219 252 4,500 -960 Descending Memphis Center
10:35AM 36.2361 -86.5000 20° North 238 274 3,100 -780 Descending Memphis Center
10:36AM 36.2900 -86.4897 North 226 260 3,000 -300 Descending Memphis Center
10:37AM 36.2811 -86.5417 258° West 106 122 2,600 -420 Descending Memphis Center